Time;durP1;ratioP1;P1;durP2;ratioP2;P2;SDS_P1;SDS_P2;PMS_P1;PMS_P2;Temp;Humidity;BMP_temperature;BMP_pressure;BME280_temperature;BME280_humidity;BME280_pressure;Samples;Min_cycle;Max_cycle;Signal;HPM_P1;HPM_P2
2023/10/17 00:01:44;;;;;;;3.47;3.27;;;;;;;;;;4953689;28;20423;-60
2023/10/17 00:06:45;;;;;;;3.80;3.60;;;;;;;;;;4954334;28;20402;-60
2023/10/17 00:09:21;;;;;;;4.00;3.90;;;;;;;;;;4954669;28;20405;-60
2023/10/17 00:14:24;;;;;;;4.23;3.90;;;;;;;;;;4954354;28;20473;-60
2023/10/17 00:16:53;;;;;;;4.03;3.73;;;;;;;;;;4954582;28;20905;-60
2023/10/17 00:19:24;;;;;;;3.60;3.40;;;;;;;;;;4952639;28;20449;-60
2023/10/17 00:21:53;;;;;;;4.07;3.53;;;;;;;;;;4954613;28;20431;-60
2023/10/17 00:24:23;;;;;;;4.03;3.70;;;;;;;;;;4956183;28;20393;-60
2023/10/17 00:26:51;;;;;;;3.63;3.53;;;;;;;;;;4958045;28;20386;-60
2023/10/17 00:29:17;;;;;;;3.97;3.37;;;;;;;;;;4958481;28;20423;-60
2023/10/17 00:31:45;;;;;;;4.27;4.00;;;;;;;;;;4957914;28;20429;-60
2023/10/17 00:34:21;;;;;;;4.00;3.80;;;;;;;;;;4958240;28;20363;-60
2023/10/17 00:37:30;;;;;;;4.27;3.83;;;;;;;;;;4957884;28;20443;-60
2023/10/17 00:39:39;;;;;;;4.10;3.80;;;;;;;;;;4957402;28;20990;-60
2023/10/17 00:44:32;;;;;;;4.13;3.93;;;;;;;;;;4958000;28;20412;-60
2023/10/17 00:47:01;;;;;;;4.27;4.00;;;;;;;;;;4958121;28;20430;-60
2023/10/17 00:49:37;;;;;;;8.93;4.30;;;;;;;;;;4958119;28;20422;-60
2023/10/17 00:52:04;;;;;;;4.23;3.83;;;;;;;;;;4957536;28;20422;-60
2023/10/17 00:54:32;;;;;;;3.67;3.33;;;;;;;;;;4957811;28;20523;-60
2023/10/17 00:57:05;;;;;;;3.47;3.30;;;;;;;;;;4957382;28;20865;-60
2023/10/17 00:59:32;;;;;;;3.63;3.43;;;;;;;;;;4957681;28;20843;-60
2023/10/17 01:01:58;;;;;;;4.00;3.80;;;;;;;;;;4957937;28;20770;-60
2023/10/17 01:04:24;;;;;;;4.23;3.90;;;;;;;;;;4957256;28;20864;-59
2023/10/17 01:07:05;;;;;;;4.13;3.83;;;;;;;;;;4957850;28;20498;-60
2023/10/17 01:09:34;;;;;;;4.17;3.83;;;;;;;;;;4957059;28;20421;-60
2023/10/17 01:12:10;;;;;;;3.53;3.33;;;;;;;;;;4957748;28;20457;-60
2023/10/17 01:14:40;;;;;;;3.97;3.87;;;;;;;;;;4957160;28;20765;-60
2023/10/17 01:17:14;;;;;;;3.80;3.50;;;;;;;;;;4957604;28;20391;-60
2023/10/17 01:19:40;;;;;;;3.63;3.33;;;;;;;;;;4957532;28;20461;-60
2023/10/17 01:22:06;;;;;;;3.80;3.60;;;;;;;;;;4956995;28;20429;-60
2023/10/17 01:24:32;;;;;;;4.23;3.90;;;;;;;;;;4957458;28;20427;-60
2023/10/17 01:27:06;;;;;;;3.80;3.60;;;;;;;;;;4956901;28;20783;-60
2023/10/17 01:29:32;;;;;;;4.43;4.13;;;;;;;;;;4957222;28;20409;-60
2023/10/17 01:31:59;;;;;;;4.10;3.70;;;;;;;;;;4957291;28;20482;-60
2023/10/17 01:34:25;;;;;;;5.10;3.57;;;;;;;;;;4956980;28;20419;-60
2023/10/17 01:36:53;;;;;;;4.40;4.10;;;;;;;;;;4956317;28;20401;-60
2023/10/17 01:39:21;;;;;;;4.17;3.97;;;;;;;;;;4956667;28;20438;-60
2023/10/17 01:41:52;;;;;;;4.40;3.60;;;;;;;;;;4956669;28;20439;-60
2023/10/17 01:44:18;;;;;;;4.37;3.97;;;;;;;;;;4957176;28;20758;-60
2023/10/17 01:46:44;;;;;;;4.13;3.90;;;;;;;;;;4957006;28;20462;-60
2023/10/17 01:49:13;;;;;;;4.80;4.40;;;;;;;;;;4956801;28;20439;-59
2023/10/17 01:51:48;;;;;;;4.43;4.23;;;;;;;;;;4957263;28;20828;-59
2023/10/17 01:54:17;;;;;;;4.30;4.10;;;;;;;;;;4956677;28;20485;-60
2023/10/17 01:56:49;;;;;;;4.70;4.43;;;;;;;;;;4955430;28;20488;-60
2023/10/17 01:59:25;;;;;;;5.53;5.00;;;;;;;;;;4956628;28;20551;-60
2023/10/17 02:01:56;;;;;;;6.10;4.47;;;;;;;;;;4956683;28;20382;-60
2023/10/17 02:04:24;;;;;;;5.40;5.10;;;;;;;;;;4956506;28;20397;-60
2023/10/17 02:06:50;;;;;;;5.83;5.40;;;;;;;;;;4955145;28;20402;-60
2023/10/17 02:12:00;;;;;;;5.20;4.80;;;;;;;;;;4956001;28;20438;-60
2023/10/17 02:14:28;;;;;;;5.00;4.60;;;;;;;;;;4956579;28;20386;-60
2023/10/17 02:16:55;;;;;;;9.97;5.43;;;;;;;;;;4955266;28;20783;-60
2023/10/17 02:19:25;;;;;;;4.80;4.37;;;;;;;;;;4955897;28;20477;-60
2023/10/17 02:21:55;;;;;;;5.57;4.65;;;;;;;;;;4956520;28;20447;-60
2023/10/17 02:24:23;;;;;;;4.80;4.40;;;;;;;;;;4955818;28;20183;-60
2023/10/17 02:26:56;;;;;;;4.97;4.57;;;;;;;;;;4955261;29;20410;-60
2023/10/17 02:29:26;;;;;;;4.77;4.37;;;;;;;;;;4956223;28;20463;-60
2023/10/17 02:31:52;;;;;;;4.80;4.47;;;;;;;;;;4955835;28;20419;-59
2023/10/17 02:34:31;;;;;;;5.13;4.83;;;;;;;;;;4955852;28;20390;-59
2023/10/17 02:37:00;;;;;;;4.70;4.50;;;;;;;;;;4956239;28;20712;-60
2023/10/17 02:39:26;;;;;;;4.83;4.53;;;;;;;;;;4955706;28;20437;-60
2023/10/17 02:42:06;;;;;;;6.43;4.20;;;;;;;;;;4954792;28;20441;-59
2023/10/17 02:44:32;;;;;;;3.90;3.70;;;;;;;;;;4955235;28;20992;-59
2023/10/17 02:46:58;;;;;;;4.73;4.43;;;;;;;;;;4955044;28;20498;-59
2023/10/17 02:49:26;;;;;;;4.20;4.00;;;;;;;;;;4954596;29;20421;-60
2023/10/17 02:51:54;;;;;;;4.90;4.43;;;;;;;;;;4955450;28;20425;-60
2023/10/17 02:54:27;;;;;;;3.60;3.50;;;;;;;;;;4955670;28;20382;-59
2023/10/17 02:56:53;;;;;;;4.70;4.50;;;;;;;;;;4955349;28;20882;-60
2023/10/17 02:59:21;;;;;;;4.40;4.20;;;;;;;;;;4955389;28;20442;-60
2023/10/17 03:01:53;;;;;;;4.60;4.40;;;;;;;;;;4955246;28;20196;-60
2023/10/17 03:04:23;;;;;;;4.20;4.00;;;;;;;;;;4955005;28;20390;-60
2023/10/17 03:06:56;;;;;;;9.60;4.20;;;;;;;;;;4955592;28;20421;-59
2023/10/17 03:12:06;;;;;;;4.10;3.80;;;;;;;;;;4954922;28;20422;-60
2023/10/17 03:15:18;;;;;;;4.57;4.30;;;;;;;;;;4955417;28;20414;-60
2023/10/17 03:17:20;;;;;;;4.37;4.17;;;;;;;;;;4954577;28;20676;-60
2023/10/17 03:19:46;;;;;;;4.00;3.70;;;;;;;;;;4955387;28;20490;-59
2023/10/17 03:22:27;;;;;;;4.20;4.00;;;;;;;;;;4953725;28;20445;-60
2023/10/17 03:25:37;;;;;;;5.60;4.10;;;;;;;;;;4955182;28;20425;-60
2023/10/17 03:27:48;;;;;;;4.60;4.35;;;;;;;;;;4954527;28;20514;-60
2023/10/17 03:30:19;;;;;;;4.60;4.40;;;;;;;;;;4955467;28;20219;-60
2023/10/17 03:35:26;;;;;;;7.88;4.40;;;;;;;;;;4954926;28;20865;-60
2023/10/17 03:37:55;;;;;;;4.25;3.92;;;;;;;;;;4955100;28;20215;-60
2023/10/17 03:40:29;;;;;;;4.90;4.60;;;;;;;;;;4954829;28;20705;-60
2023/10/17 03:42:55;;;;;;;4.73;4.43;;;;;;;;;;4955152;28;20469;-60
2023/10/17 03:47:57;;;;;;;4.20;4.00;;;;;;;;;;4954915;28;20646;-60
2023/10/17 03:50:48;;;;;;;4.38;4.00;;;;;;;;;;4954771;28;20443;-59
2023/10/17 03:55:52;;;;;;;4.17;3.97;;;;;;;;;;4954915;28;20423;-60
2023/10/17 03:58:28;;;;;;;8.10;5.30;;;;;;;;;;4954212;28;20390;-60
2023/10/17 04:00:56;;;;;;;12.57;4.55;;;;;;;;;;4955051;28;20198;-60
2023/10/17 04:03:25;;;;;;;6.27;4.80;;;;;;;;;;4954793;28;20211;-60
2023/10/17 04:08:31;;;;;;;4.50;4.10;;;;;;;;;;4954288;28;20382;-60
2023/10/17 04:13:56;;;;;;;5.00;4.70;;;;;;;;;;4953691;28;20486;-60
2023/10/17 04:16:38;;;;;;;5.38;5.07;;;;;;;;;;4954482;28;20282;-60
2023/10/17 04:19:05;;;;;;;5.15;4.80;;;;;;;;;;4954106;28;20215;-60
2023/10/17 04:21:45;;;;;;;5.35;4.95;;;;;;;;;;4953145;28;20572;-60
2023/10/17 04:24:13;;;;;;;4.70;4.40;;;;;;;;;;4954143;28;20198;-60
2023/10/17 04:26:46;;;;;;;5.97;5.57;;;;;;;;;;4954057;28;20271;-59
2023/10/17 04:29:21;;;;;;;6.05;5.53;;;;;;;;;;4954321;28;20386;-60
2023/10/17 04:31:55;;;;;;;6.95;5.25;;;;;;;;;;4953777;28;20238;-60
2023/10/17 04:34:21;;;;;;;4.53;4.32;;;;;;;;;;4954049;28;20208;-60
2023/10/17 04:36:51;;;;;;;5.97;5.40;;;;;;;;;;4953961;28;20231;-60
2023/10/17 04:45:13;;;;;;;6.15;5.60;;;;;;;;;;4954001;28;20474;-60
2023/10/17 04:49:50;;;;;;;5.75;5.32;;;;;;;;;;4953941;28;20183;-60
2023/10/17 04:52:28;;;;;;;5.75;5.20;;;;;;;;;;4954089;28;20203;-60
2023/10/17 04:54:55;;;;;;;6.72;6.18;;;;;;;;;;4954000;28;20183;-60
2023/10/17 04:57:21;;;;;;;6.53;5.90;;;;;;;;;;4953732;28;20200;-60
2023/10/17 05:02:35;;;;;;;5.20;4.90;;;;;;;;;;4953980;28;20402;-60
2023/10/17 06:18:57;;;;;;;5.75;5.35;;;;;;;;;;4956475;29;20245;-60
2023/10/17 06:21:36;;;;;;;5.88;5.53;;;;;;;;;;4955881;28;20723;-60
2023/10/17 06:24:06;;;;;;;5.47;5.00;;;;;;;;;;4956065;28;20219;-61
2023/10/17 06:34:09;;;;;;;5.18;4.78;;;;;;;;;;4955833;28;20176;-59
2023/10/17 06:36:39;;;;;;;9.80;7.43;;;;;;;;;;4956083;28;20180;-59
2023/10/17 06:39:15;;;;;;;7.25;6.43;;;;;;;;;;4955578;28;20448;-59
2023/10/17 06:41:43;;;;;;;6.10;5.57;;;;;;;;;;4955658;28;20184;-59
2023/10/17 06:44:10;;;;;;;6.40;5.40;;;;;;;;;;4955657;28;20612;-60
2023/10/17 06:46:48;;;;;;;6.72;5.95;;;;;;;;;;4955564;28;20247;-59
2023/10/17 06:54:41;;;;;;;32.83;22.67;;;;;;;;;;4955416;28;20192;-60
2023/10/17 06:57:19;;;;;;;5.70;5.30;;;;;;;;;;4955541;28;20422;-59
2023/10/17 06:59:51;;;;;;;5.87;5.37;;;;;;;;;;4955651;28;20948;-59
2023/10/17 07:02:34;;;;;;;5.30;4.93;;;;;;;;;;4955302;28;20939;-59
2023/10/17 07:05:01;;;;;;;4.40;4.20;;;;;;;;;;4955421;28;20781;-60
2023/10/17 07:07:45;;;;;;;5.33;5.00;;;;;;;;;;4955252;28;20411;-59
2023/10/17 07:13:12;;;;;;;5.20;4.90;;;;;;;;;;4955141;28;20455;-59
2023/10/17 07:15:39;;;;;;;5.80;5.20;;;;;;;;;;4955208;28;20458;-59
2023/10/17 07:23:40;;;;;;;6.27;5.77;;;;;;;;;;4955408;29;20434;-59
2023/10/17 07:26:10;;;;;;;13.77;10.10;;;;;;;;;;4954906;28;20423;-60
2023/10/17 07:28:42;;;;;;;6.00;5.50;;;;;;;;;;4954856;28;20937;-60
2023/10/17 07:31:11;;;;;;;7.40;6.80;;;;;;;;;;4953369;28;20420;-60
2023/10/17 07:33:42;;;;;;;6.00;5.50;;;;;;;;;;4954447;28;20490;-60
2023/10/17 07:36:15;;;;;;;8.50;6.03;;;;;;;;;;4954839;28;20469;-59
2023/10/17 07:38:45;;;;;;;7.30;6.30;;;;;;;;;;4953711;28;20503;-59
2023/10/17 07:41:14;;;;;;;7.00;6.43;;;;;;;;;;4954613;28;20459;-59
2023/10/17 07:43:44;;;;;;;6.83;6.33;;;;;;;;;;4954473;28;20510;-59
2023/10/17 07:46:19;;;;;;;8.30;7.50;;;;;;;;;;4954615;28;20427;-59
2023/10/17 07:48:51;;;;;;;6.90;6.30;;;;;;;;;;4954680;28;20973;-60
2023/10/17 07:51:17;;;;;;;20.43;14.73;;;;;;;;;;4954302;28;20423;-60
2023/10/17 07:53:46;;;;;;;12.20;10.10;;;;;;;;;;4954713;28;20494;-59
2023/10/17 07:56:26;;;;;;;8.00;6.33;;;;;;;;;;4954771;28;20415;-59
2023/10/17 07:59:04;;;;;;;6.70;6.23;;;;;;;;;;4953466;28;20992;-60
2023/10/17 08:01:41;;;;;;;7.50;5.60;;;;;;;;;;4954703;28;20419;-60
2023/10/17 08:04:17;;;;;;;6.47;5.77;;;;;;;;;;4954414;28;20797;-60
2023/10/17 08:06:46;;;;;;;7.20;6.60;;;;;;;;;;4954522;28;20438;-59
2023/10/17 08:09:24;;;;;;;6.67;6.17;;;;;;;;;;4954492;28;20945;-59
2023/10/17 08:11:55;;;;;;;6.90;6.20;;;;;;;;;;4954092;28;20423;-59
2023/10/17 08:14:26;;;;;;;6.07;5.60;;;;;;;;;;4954185;28;20424;-60
2023/10/17 08:16:55;;;;;;;11.60;6.63;;;;;;;;;;4954058;28;20414;-60
2023/10/17 08:19:29;;;;;;;21.10;7.27;;;;;;;;;;4953964;28;20561;-60
2023/10/17 08:28:13;;;;;;;6.70;6.20;;;;;;;;;;4954731;28;20412;-59
2023/10/17 08:30:14;;;;;;;7.33;6.73;;;;;;;;;;4953047;28;20443;-60
2023/10/17 08:32:47;;;;;;;6.83;6.37;;;;;;;;;;4954261;28;20411;-59
2023/10/17 08:35:26;;;;;;;6.53;6.03;;;;;;;;;;4954116;28;20426;-60
2023/10/17 08:37:52;;;;;;;7.70;5.83;;;;;;;;;;4954152;28;20478;-60
2023/10/17 08:43:19;;;;;;;6.20;5.67;;;;;;;;;;4952764;29;20420;-59
2023/10/17 08:45:54;;;;;;;6.10;5.60;;;;;;;;;;4954943;28;20426;-60
2023/10/17 08:48:20;;;;;;;4.93;4.73;;;;;;;;;;4957619;28;20418;-60
2023/10/17 08:50:46;;;;;;;4.87;4.50;;;;;;;;;;4958037;28;20421;-60
2023/10/17 08:53:24;;;;;;;7.50;5.00;;;;;;;;;;4957908;28;20511;-59
2023/10/17 08:55:51;;;;;;;4.50;4.23;;;;;;;;;;4957480;28;20787;-60
2023/10/17 08:58:17;;;;;;;4.47;4.00;;;;;;;;;;4957874;28;20418;-60
2023/10/17 09:03:24;;;;;;;3.80;3.70;;;;;;;;;;4957397;28;20439;-61
2023/10/17 09:05:58;;;;;;;4.17;3.87;;;;;;;;;;4957502;28;20503;-61
2023/10/17 09:08:41;;;;;;;4.27;3.90;;;;;;;;;;4957257;28;20418;-61
2023/10/17 09:11:08;;;;;;;4.17;3.77;;;;;;;;;;4958021;28;20498;-61
2023/10/17 09:16:34;;;;;;;4.63;4.30;;;;;;;;;;4956204;28;20496;-61
2023/10/17 09:19:10;;;;;;;6.83;3.90;;;;;;;;;;4957212;28;20967;-61
2023/10/17 09:21:41;;;;;;;4.00;3.80;;;;;;;;;;4957519;28;20836;-61
2023/10/17 09:24:14;;;;;;;4.50;4.20;;;;;;;;;;4957211;28;20471;-61
2023/10/17 09:26:46;;;;;;;4.57;4.27;;;;;;;;;;4955564;28;20436;-61
2023/10/17 09:29:12;;;;;;;9.00;4.27;;;;;;;;;;4957195;28;20415;-61
2023/10/17 09:31:46;;;;;;;3.93;3.73;;;;;;;;;;4956569;28;20415;-61
2023/10/17 09:34:14;;;;;;;3.57;3.37;;;;;;;;;;4957133;28;20525;-61
2023/10/17 09:36:42;;;;;;;4.17;3.40;;;;;;;;;;4957035;28;20437;-61
2023/10/17 09:39:15;;;;;;;3.87;3.67;;;;;;;;;;4956694;28;20480;-61
2023/10/17 09:41:43;;;;;;;3.63;3.43;;;;;;;;;;4956954;28;20418;-61
2023/10/17 09:44:10;;;;;;;3.80;3.43;;;;;;;;;;4956768;28;20987;-61
2023/10/17 09:46:39;;;;;;;3.60;3.30;;;;;;;;;;4956944;28;20419;-61
2023/10/17 09:49:05;;;;;;;3.60;3.50;;;;;;;;;;4956882;28;20503;-61
2023/10/17 09:51:35;;;;;;;3.30;3.17;;;;;;;;;;4956086;28;20416;-61
2023/10/17 09:54:04;;;;;;;3.50;3.30;;;;;;;;;;4956773;28;20513;-61
2023/10/17 09:56:31;;;;;;;3.47;3.27;;;;;;;;;;4956166;28;20446;-61
2023/10/17 09:59:02;;;;;;;3.17;2.90;;;;;;;;;;4956205;28;20460;-61
2023/10/17 10:01:31;;;;;;;3.23;3.13;;;;;;;;;;4956787;28;20449;-61
2023/10/17 10:03:58;;;;;;;3.97;3.50;;;;;;;;;;4956559;28;20438;-61
2023/10/17 10:06:25;;;;;;;3.77;3.50;;;;;;;;;;4956687;28;20462;-61
2023/10/17 10:09:15;;;;;;;81.13;53.93;;;;;;;;;;4956436;28;20416;-61
2023/10/17 10:11:53;;;;;;;6.63;5.87;;;;;;;;;;4952931;29;20447;-61
2023/10/17 10:14:27;;;;;;;44.53;29.50;;;;;;;;;;4956549;28;20439;-61
2023/10/17 10:16:55;;;;;;;4.00;3.80;;;;;;;;;;4956143;28;20874;-61
2023/10/17 10:19:22;;;;;;;40.80;25.87;;;;;;;;;;4956284;28;20554;-61
2023/10/17 10:22:00;;;;;;;35.70;21.67;;;;;;;;;;4954578;29;20422;-61
2023/10/17 10:24:31;;;;;;;4.20;3.90;;;;;;;;;;4956201;28;20439;-61
2023/10/17 10:27:15;;;;;;;3.87;3.63;;;;;;;;;;4956010;28;20911;-61
2023/10/17 10:29:54;;;;;;;3.27;3.17;;;;;;;;;;4955787;28;20450;-61
2023/10/17 10:32:26;;;;;;;3.90;3.60;;;;;;;;;;4956253;28;20854;-61
2023/10/17 10:34:54;;;;;;;3.90;3.60;;;;;;;;;;4956342;28;20523;-61
2023/10/17 10:37:21;;;;;;;3.93;3.70;;;;;;;;;;4956498;28;20485;-61
2023/10/17 10:40:11;;;;;;;4.70;3.70;;;;;;;;;;4956554;28;20960;-61
2023/10/17 10:42:43;;;;;;;3.63;3.53;;;;;;;;;;4956287;28;20440;-61
2023/10/17 10:45:23;;;;;;;4.57;4.23;;;;;;;;;;4955745;28;20429;-61
2023/10/17 10:47:54;;;;;;;5.60;4.50;;;;;;;;;;4955378;28;20417;-60
2023/10/17 10:50:20;;;;;;;4.73;4.50;;;;;;;;;;4955913;28;20449;-62
2023/10/17 10:52:49;;;;;;;4.97;4.50;;;;;;;;;;4955289;28;20462;-60
2023/10/17 10:55:15;;;;;;;4.70;4.07;;;;;;;;;;4955517;28;20477;-60
2023/10/17 10:57:46;;;;;;;4.83;4.33;;;;;;;;;;4955425;28;20444;-60
2023/10/17 11:00:15;;;;;;;5.93;4.63;;;;;;;;;;4954878;28;20481;-60
2023/10/17 11:02:42;;;;;;;3.97;3.87;;;;;;;;;;4955451;28;20803;-60
2023/10/17 11:05:13;;;;;;;4.00;3.80;;;;;;;;;;4955191;29;20452;-60
2023/10/17 11:07:39;;;;;;;4.70;4.30;;;;;;;;;;4954823;28;20414;-60
2023/10/17 11:10:18;;;;;;;8.80;7.90;;;;;;;;;;4954760;28;20441;-60
2023/10/17 11:12:56;;;;;;;9.83;8.87;;;;;;;;;;4954578;28;20417;-60
2023/10/17 11:15:26;;;;;;;5.43;4.90;;;;;;;;;;4955117;28;20415;-61
2023/10/17 11:17:59;;;;;;;5.60;5.10;;;;;;;;;;4955029;28;20429;-60
2023/10/17 11:20:25;;;;;;;5.63;4.50;;;;;;;;;;4954838;28;20464;-60
2023/10/17 11:22:51;;;;;;;7.40;5.40;;;;;;;;;;4954657;28;20426;-60
2023/10/17 11:25:31;;;;;;;5.07;4.77;;;;;;;;;;4954984;28;20443;-60
2023/10/17 11:28:02;;;;;;;5.87;5.30;;;;;;;;;;4954602;28;20439;-60
2023/10/17 11:30:36;;;;;;;5.90;5.50;;;;;;;;;;4955178;28;20504;-60
2023/10/17 11:33:06;;;;;;;9.90;5.53;;;;;;;;;;4954640;28;20448;-60
2023/10/17 11:35:34;;;;;;;5.87;5.37;;;;;;;;;;4954999;28;20491;-60
2023/10/17 11:38:00;;;;;;;5.70;5.30;;;;;;;;;;4954250;28;20421;-60
2023/10/17 11:40:38;;;;;;;6.50;5.93;;;;;;;;;;4954525;28;20478;-60
2023/10/17 11:43:13;;;;;;;5.53;5.20;;;;;;;;;;4954486;28;20417;-60
2023/10/17 11:45:41;;;;;;;8.57;5.67;;;;;;;;;;4954893;28;20789;-60
2023/10/17 11:48:26;;;;;;;6.17;5.67;;;;;;;;;;4954213;28;20474;-60
2023/10/17 11:51:03;;;;;;;5.80;5.40;;;;;;;;;;4954492;28;20410;-60
2023/10/17 11:53:30;;;;;;;5.20;4.90;;;;;;;;;;4954204;28;20478;-60
2023/10/17 11:55:56;;;;;;;5.40;5.00;;;;;;;;;;4954590;28;20495;-60
2023/10/17 11:58:25;;;;;;;4.73;4.33;;;;;;;;;;4975169;23;20510;-60
2023/10/17 12:00:51;;;;;;;4.30;4.00;;;;;;;;;;4973460;28;21146;-60
2023/10/17 12:03:21;;;;;;;4.73;4.43;;;;;;;;;;4973797;28;20410;-60
2023/10/17 12:05:47;;;;;;;5.07;4.70;;;;;;;;;;4973917;28;20442;-60
2023/10/17 12:08:22;;;;;;;5.50;5.10;;;;;;;;;;4973845;28;20410;-59
2023/10/17 12:10:53;;;;;;;9.70;7.73;;;;;;;;;;4972614;28;20984;-60
2023/10/17 12:13:19;;;;;;;6.33;5.73;;;;;;;;;;4972279;28;20876;-59
2023/10/17 12:15:45;;;;;;;8.27;5.97;;;;;;;;;;4973521;28;20448;-60
2023/10/17 12:18:14;;;;;;;7.33;6.73;;;;;;;;;;4973719;28;20899;-60
2023/10/17 12:20:40;;;;;;;7.30;6.10;;;;;;;;;;4973368;28;20957;-60
2023/10/17 12:23:09;;;;;;;6.20;5.70;;;;;;;;;;4973868;28;20486;-60
2023/10/17 12:25:36;;;;;;;6.03;5.67;;;;;;;;;;4971757;28;20432;-60
2023/10/17 12:28:02;;;;;;;9.93;5.30;;;;;;;;;;4973303;28;20430;-62
2023/10/17 12:30:35;;;;;;;6.57;6.20;;;;;;;;;;4973150;28;20532;-59
2023/10/17 12:33:01;;;;;;;6.07;5.63;;;;;;;;;;4972056;28;20430;-60
2023/10/17 12:35:27;;;;;;;6.27;5.50;;;;;;;;;;4972298;28;20495;-59
2023/10/17 12:38:05;;;;;;;5.73;5.50;;;;;;;;;;4973373;28;20422;-59
2023/10/17 12:40:31;;;;;;;8.40;5.63;;;;;;;;;;4973485;28;20476;-60
2023/10/17 12:42:57;;;;;;;5.93;5.63;;;;;;;;;;4973386;28;20413;-59
2023/10/17 12:45:24;;;;;;;8.20;6.07;;;;;;;;;;4973344;28;20418;-59
2023/10/17 12:47:51;;;;;;;6.80;5.50;;;;;;;;;;4973217;28;20425;-60
2023/10/17 12:50:20;;;;;;;5.80;5.50;;;;;;;;;;4973145;28;20901;-59
2023/10/17 12:52:47;;;;;;;6.53;5.93;;;;;;;;;;4973009;28;20737;-59
2023/10/17 12:55:13;;;;;;;5.97;5.50;;;;;;;;;;4973206;28;20431;-59
2023/10/17 12:57:43;;;;;;;5.20;4.70;;;;;;;;;;4972952;28;21035;-59
2023/10/17 13:00:09;;;;;;;5.50;5.00;;;;;;;;;;4972622;28;20477;-59
2023/10/17 13:02:38;;;;;;;5.97;5.40;;;;;;;;;;4973281;28;20505;-60
2023/10/17 13:05:09;;;;;;;5.87;5.30;;;;;;;;;;4972795;28;20449;-60
2023/10/17 13:07:35;;;;;;;6.33;5.73;;;;;;;;;;4972003;28;20449;-59
2023/10/17 13:10:00;;;;;;;7.17;6.50;;;;;;;;;;4973107;28;20418;-59
2023/10/17 13:12:26;;;;;;;7.03;6.20;;;;;;;;;;4973011;28;20797;-59
2023/10/17 13:14:55;;;;;;;6.00;5.60;;;;;;;;;;4971573;28;20424;-59
2023/10/17 13:17:22;;;;;;;6.77;6.03;;;;;;;;;;4973006;28;20452;-59
2023/10/17 13:19:51;;;;;;;5.27;5.07;;;;;;;;;;4972971;28;20495;-59
2023/10/17 13:22:17;;;;;;;7.07;6.43;;;;;;;;;;4972527;28;20429;-62
2023/10/17 13:24:45;;;;;;;6.73;6.23;;;;;;;;;;4972618;28;20504;-59
2023/10/17 13:27:11;;;;;;;15.67;10.53;;;;;;;;;;4972437;28;20420;-59
2023/10/17 13:29:38;;;;;;;8.30;7.50;;;;;;;;;;4972937;28;20433;-60
2023/10/17 13:32:07;;;;;;;9.23;6.63;;;;;;;;;;4974307;28;20948;-60
2023/10/17 13:34:39;;;;;;;6.30;5.90;;;;;;;;;;4976094;28;20414;-60
2023/10/17 13:37:05;;;;;;;5.80;5.40;;;;;;;;;;4976471;28;20845;-60
2023/10/17 13:39:36;;;;;;;7.77;6.50;;;;;;;;;;4975124;28;20474;-60
2023/10/17 13:42:02;;;;;;;5.83;5.43;;;;;;;;;;4976013;28;20917;-60
2023/10/17 13:44:29;;;;;;;6.37;5.87;;;;;;;;;;4976148;28;20430;-60
2023/10/17 13:46:56;;;;;;;6.53;6.03;;;;;;;;;;4976238;28;20452;-60
2023/10/17 13:49:22;;;;;;;5.83;5.33;;;;;;;;;;4975996;28;20957;-60
2023/10/17 13:51:48;;;;;;;7.10;6.50;;;;;;;;;;4975770;28;20793;-60
2023/10/17 13:54:16;;;;;;;6.50;5.90;;;;;;;;;;4975850;28;20448;-60
2023/10/17 13:56:42;;;;;;;5.40;5.10;;;;;;;;;;4975957;28;20443;-60
2023/10/17 13:59:13;;;;;;;6.07;5.53;;;;;;;;;;4976253;28;20483;-60
2023/10/17 14:01:42;;;;;;;14.70;10.13;;;;;;;;;;4974830;28;20456;-60
2023/10/17 14:04:11;;;;;;;6.10;5.70;;;;;;;;;;4975939;28;20426;-60
2023/10/17 14:06:42;;;;;;;6.57;6.07;;;;;;;;;;4975614;28;20474;-60
2023/10/17 14:09:17;;;;;;;5.97;5.67;;;;;;;;;;4975784;28;20428;-61
2023/10/17 14:11:47;;;;;;;6.50;5.93;;;;;;;;;;4974458;28;20430;-60
2023/10/17 14:14:13;;;;;;;6.23;5.77;;;;;;;;;;4975808;28;20419;-60
2023/10/17 14:16:42;;;;;;;6.87;6.27;;;;;;;;;;4975390;28;20415;-60
2023/10/17 14:27:20;;;;;;;29.47;18.00;;;;;;;;;;4975986;28;20499;-59
2023/10/17 14:29:46;;;;;;;9.83;8.87;;;;;;;;;;4975641;28;20453;-61
2023/10/17 14:32:15;;;;;;;14.13;10.60;;;;;;;;;;4975321;28;20423;-61
2023/10/17 14:34:41;;;;;;;22.30;14.50;;;;;;;;;;4974942;28;20422;-61
2023/10/17 14:37:07;;;;;;;31.90;19.13;;;;;;;;;;4975470;28;20505;-61
2023/10/17 14:39:34;;;;;;;13.60;10.63;;;;;;;;;;4974629;28;20948;-61
2023/10/17 14:42:00;;;;;;;9.23;7.13;;;;;;;;;;4975288;28;20418;-61
2023/10/17 14:44:29;;;;;;;13.43;7.13;;;;;;;;;;4974877;28;20406;-61
2023/10/17 14:46:57;;;;;;;9.40;7.07;;;;;;;;;;4975274;28;20422;-61
2023/10/17 14:49:26;;;;;;;13.13;7.63;;;;;;;;;;4974829;28;20414;-61
2023/10/17 14:51:53;;;;;;;8.23;7.47;;;;;;;;;;4974928;28;20449;-61
2023/10/17 14:54:19;;;;;;;9.07;7.43;;;;;;;;;;4974903;28;20465;-61
2023/10/17 14:56:45;;;;;;;8.93;6.47;;;;;;;;;;4974574;28;20504;-61
2023/10/17 14:59:11;;;;;;;7.37;6.77;;;;;;;;;;4974380;28;20563;-61
2023/10/17 15:01:37;;;;;;;7.00;6.50;;;;;;;;;;4974691;28;20428;-61
2023/10/17 15:04:03;;;;;;;8.73;6.60;;;;;;;;;;4973556;28;20416;-61
2023/10/17 15:06:32;;;;;;;10.80;7.50;;;;;;;;;;4974783;28;20471;-61
2023/10/17 15:08:58;;;;;;;12.33;11.03;;;;;;;;;;4974264;28;20910;-61
2023/10/17 15:11:24;;;;;;;10.83;9.67;;;;;;;;;;4974619;28;20790;-61
2023/10/17 15:13:50;;;;;;;8.37;7.57;;;;;;;;;;4974594;28;20450;-61
2023/10/17 15:16:17;;;;;;;16.77;7.37;;;;;;;;;;4974514;28;20916;-61
2023/10/17 15:18:44;;;;;;;7.93;7.10;;;;;;;;;;4974457;28;20461;-61
2023/10/17 15:21:15;;;;;;;6.80;6.30;;;;;;;;;;4974592;28;20844;-61
2023/10/17 15:23:41;;;;;;;7.43;6.73;;;;;;;;;;4974528;28;20451;-61
2023/10/17 15:26:07;;;;;;;12.07;6.90;;;;;;;;;;4973807;28;20424;-61
2023/10/17 15:28:34;;;;;;;6.83;6.13;;;;;;;;;;4974245;28;20452;-61
2023/10/17 15:31:03;;;;;;;7.20;6.53;;;;;;;;;;4974211;28;20428;-61
2023/10/17 15:33:29;;;;;;;9.37;6.70;;;;;;;;;;4974012;28;20460;-61
2023/10/17 15:35:55;;;;;;;6.80;6.10;;;;;;;;;;4974155;28;20433;-61
2023/10/17 15:38:22;;;;;;;11.13;8.77;;;;;;;;;;4974239;28;20442;-61
2023/10/17 15:40:51;;;;;;;7.03;6.07;;;;;;;;;;4974040;28;20476;-61
2023/10/17 15:43:17;;;;;;;7.30;6.70;;;;;;;;;;4974298;28;20912;-61
2023/10/17 15:45:52;;;;;;;7.20;6.60;;;;;;;;;;4973974;28;20900;-61
2023/10/17 15:48:18;;;;;;;9.13;6.40;;;;;;;;;;4973813;28;20419;-61
2023/10/17 15:50:44;;;;;;;6.53;6.03;;;;;;;;;;4973908;28;20884;-61
2023/10/17 15:53:12;;;;;;;7.53;6.70;;;;;;;;;;4973973;28;20437;-61
2023/10/17 15:55:38;;;;;;;6.80;6.37;;;;;;;;;;4973912;28;20420;-61
2023/10/17 15:58:04;;;;;;;8.30;6.13;;;;;;;;;;4973689;28;20858;-61
2023/10/17 16:00:30;;;;;;;9.93;6.70;;;;;;;;;;4972841;28;20521;-61
2023/10/17 16:02:58;;;;;;;7.57;6.87;;;;;;;;;;4973683;28;20435;-61
2023/10/17 16:05:27;;;;;;;16.37;14.47;;;;;;;;;;4973826;28;20902;-61
2023/10/17 16:07:53;;;;;;;12.90;6.80;;;;;;;;;;4973941;28;20448;-61
2023/10/17 16:10:22;;;;;;;14.73;12.77;;;;;;;;;;4973685;28;20450;-61
2023/10/17 16:12:48;;;;;;;8.83;6.60;;;;;;;;;;4973557;28;20448;-61
2023/10/17 16:15:16;;;;;;;7.30;6.73;;;;;;;;;;4972328;28;20820;-61
2023/10/17 16:17:42;;;;;;;9.00;6.50;;;;;;;;;;4973778;28;20451;-61
2023/10/17 16:20:08;;;;;;;7.73;7.00;;;;;;;;;;4973661;28;20976;-61
2023/10/17 16:22:37;;;;;;;17.63;14.03;;;;;;;;;;4973665;28;20474;-61
2023/10/17 16:25:07;;;;;;;15.80;13.73;;;;;;;;;;4973570;28;20454;-61
2023/10/17 16:27:34;;;;;;;9.10;8.23;;;;;;;;;;4973693;28;20428;-61
2023/10/17 16:30:12;;;;;;;11.03;7.50;;;;;;;;;;4973588;28;20426;-61
2023/10/17 16:32:38;;;;;;;12.13;9.50;;;;;;;;;;4973209;28;20421;-61
2023/10/17 16:35:05;;;;;;;9.57;8.70;;;;;;;;;;4973364;28;20414;-61
2023/10/17 16:37:32;;;;;;;71.53;55.83;;;;;;;;;;4972197;28;20426;-60
2023/10/17 16:39:59;;;;;;;20.60;17.83;;;;;;;;;;4973318;28;20831;-61
2023/10/17 16:42:25;;;;;;;15.13;9.00;;;;;;;;;;4972935;28;20488;-61
2023/10/17 16:44:51;;;;;;;8.27;7.47;;;;;;;;;;4973168;28;20426;-60
2023/10/17 16:47:19;;;;;;;9.87;7.63;;;;;;;;;;4973125;28;20803;-61
2023/10/17 16:49:45;;;;;;;9.67;8.40;;;;;;;;;;4972365;28;20433;-61
2023/10/17 16:52:12;;;;;;;10.57;7.53;;;;;;;;;;4973265;28;20430;-60
2023/10/17 16:54:38;;;;;;;8.03;6.57;;;;;;;;;;4973376;28;20533;-61
2023/10/17 16:57:08;;;;;;;8.90;7.70;;;;;;;;;;4973190;28;20481;-60
2023/10/17 16:59:34;;;;;;;8.70;7.90;;;;;;;;;;4973232;28;20465;-60
2023/10/17 17:02:02;;;;;;;8.73;7.80;;;;;;;;;;4975209;28;20777;-60
2023/10/17 17:04:31;;;;;;;8.37;7.60;;;;;;;;;;4973231;28;20446;-61
2023/10/17 17:06:57;;;;;;;9.03;8.13;;;;;;;;;;4974169;28;20890;-61
2023/10/17 17:09:23;;;;;;;9.73;8.63;;;;;;;;;;4976883;28;20949;-60
2023/10/17 17:11:54;;;;;;;8.47;7.47;;;;;;;;;;4976711;28;20497;-60
2023/10/17 17:14:22;;;;;;;8.90;8.00;;;;;;;;;;4976701;28;20830;-60
2023/10/17 17:16:49;;;;;;;11.83;8.83;;;;;;;;;;4976351;28;20422;-60
2023/10/17 17:19:19;;;;;;;9.00;7.90;;;;;;;;;;4975452;28;20564;-61
2023/10/17 17:21:48;;;;;;;9.13;7.67;;;;;;;;;;4976741;28;20441;-61
2023/10/17 17:24:17;;;;;;;14.33;9.40;;;;;;;;;;4976802;28;20901;-61
2023/10/17 17:26:43;;;;;;;10.03;9.03;;;;;;;;;;4976661;28;20792;-61
2023/10/17 17:29:09;;;;;;;13.43;8.63;;;;;;;;;;4976729;28;20894;-61
2023/10/17 17:31:35;;;;;;;26.47;15.33;;;;;;;;;;4976485;28;20494;-61